Time;durP1;ratioP1;P1;durP2;ratioP2;P2;SDS_P1;SDS_P2;PMS_P1;PMS_P2;Temp;Humidity;BMP_temperature;BMP_pressure;BME280_temperature;BME280_humidity;BME280_pressure;Samples;Min_cycle;Max_cycle;Signal;HPM_P1;HPM_P2
2022/07/01 00:02:10;;;;;;;;;;;16.00;99.90;;;;;;10165539;28;85182;-45
2022/07/01 00:07:11;;;;;;;;;;;16.00;99.90;;;;;;10166228;28;84108;-48
2022/07/01 00:12:12;;;;;;;;;;;15.90;99.90;;;;;;10165746;28;84230;-46
2022/07/01 00:17:12;;;;;;;;;;;15.90;99.90;;;;;;10165535;28;84191;-45
2022/07/01 00:22:13;;;;;;;;;;;15.80;99.90;;;;;;10164973;28;84167;-45
2022/07/01 00:27:14;;;;;;;;;;;15.90;99.90;;;;;;10165340;28;84097;-49
2022/07/01 00:32:15;;;;;;;;;;;16.00;99.90;;;;;;10163525;28;85747;-45
2022/07/01 00:37:15;;;;;;;;;;;15.90;99.90;;;;;;10165956;28;84742;-49
2022/07/01 00:42:16;;;;;;;;;;;15.90;99.90;;;;;;10164928;28;85080;-46
2022/07/01 00:47:16;;;;;;;;;;;15.90;99.90;;;;;;10164851;28;85422;-46
2022/07/01 00:52:17;;;;;;;;;;;15.80;99.90;;;;;;10165269;28;85109;-48
2022/07/01 00:57:18;;;;;;;;;;;15.90;99.90;;;;;;10158338;28;84352;-46
2022/07/01 01:02:18;;;;;;;;;;;15.90;99.90;;;;;;10160228;28;85144;-45
2022/07/01 01:07:19;;;;;;;;;;;15.90;99.90;;;;;;10170840;28;84036;-46
2022/07/01 01:12:19;;;;;;;;;;;16.00;99.90;;;;;;10165084;28;84009;-46
2022/07/01 01:17:23;;;;;;;;;;;16.00;99.90;;;;;;10164367;28;86891;-46
2022/07/01 01:22:24;;;;;;;;;;;16.10;99.90;;;;;;10166625;28;85296;-46
2022/07/01 01:27:24;;;;;;;;;;;16.00;99.90;;;;;;10162939;28;85193;-46
2022/07/01 01:32:25;;;;;;;;;;;16.00;99.90;;;;;;10166504;28;84459;-45
2022/07/01 01:37:27;;;;;;;;;;;16.10;99.90;;;;;;10170106;28;84177;-46
2022/07/01 01:42:27;;;;;;;;;;;16.00;99.90;;;;;;10170201;28;84140;-46
2022/07/01 01:47:28;;;;;;;;;;;16.00;99.90;;;;;;10169932;28;84311;-48
2022/07/01 01:52:28;;;;;;;;;;;15.90;99.90;;;;;;10172788;28;84916;-47
2022/07/01 01:57:29;;;;;;;;;;;16.00;99.90;;;;;;10172361;28;85017;-46
2022/07/01 02:02:30;;;;;;;;;;;16.00;99.90;;;;;;10169918;28;85486;-48
2022/07/01 02:07:30;;;;;;;;;;;16.00;99.90;;;;;;10170208;28;84992;-45
2022/07/01 02:12:32;;;;;;;;;;;16.00;99.90;;;;;;10170112;28;84937;-45
2022/07/01 02:17:32;;;;;;;;;;;16.00;99.90;;;;;;10170103;28;84096;-50
2022/07/01 02:22:33;;;;;;;;;;;16.00;99.90;;;;;;10193667;22;84913;-49
2022/07/01 02:27:33;;;;;;;;;;;15.90;99.90;;;;;;10249083;28;85020;-48
2022/07/01 02:32:34;;;;;;;;;;;15.90;99.90;;;;;;10244440;28;84879;-48
2022/07/01 02:37:34;;;;;;;;;;;15.90;99.90;;;;;;10205565;28;85800;-46
2022/07/01 02:42:35;;;;;;;;;;;16.00;99.90;;;;;;10206417;28;84214;-47
2022/07/01 02:47:37;;;;;;;;;;;15.90;99.90;;;;;;10216300;28;84457;-41
2022/07/01 02:52:38;;;;;;;;;;;15.90;99.90;;;;;;10208750;28;84026;-51
2022/07/01 02:57:40;;;;;;;;;;;15.90;99.90;;;;;;10212575;28;84782;-47
2022/07/01 03:02:41;;;;;;;;;;;15.90;99.90;;;;;;10209606;28;84225;-46
2022/07/01 03:07:41;;;;;;;;;;;15.80;99.90;;;;;;10208562;28;84787;-46
2022/07/01 03:12:42;;;;;;;;;;;15.90;99.90;;;;;;10214989;28;86016;-50
2022/07/01 03:17:44;;;;;;;;;;;15.90;99.90;;;;;;10207744;28;84859;-51
2022/07/01 03:22:46;;;;;;;;;;;15.90;99.90;;;;;;10206428;28;84197;-50
2022/07/01 03:27:47;;;;;;;;;;;15.90;99.90;;;;;;10206711;28;84905;-46
2022/07/01 03:32:48;;;;;;;;;;;15.80;99.90;;;;;;10223101;28;85085;-48
2022/07/01 03:37:49;;;;;;;;;;;15.80;99.90;;;;;;10205762;28;85018;-46
2022/07/01 03:42:49;;;;;;;;;;;15.80;99.90;;;;;;10207236;28;84307;-47
2022/07/01 03:47:51;;;;;;;;;;;15.70;99.90;;;;;;10211284;28;84745;-52
2022/07/01 03:54:29;;;;;;;;;;;15.80;99.90;;;;;;10206422;28;84275;-46
2022/07/01 03:58:12;;;;;;;;;;;15.70;99.90;;;;;;10217138;28;84784;-46
2022/07/01 04:03:12;;;;;;;;;;;15.70;99.90;;;;;;10246329;28;84079;-52
2022/07/01 04:08:14;;;;;;;;;;;15.60;99.90;;;;;;10231008;28;84210;-51
2022/07/01 04:13:14;;;;;;;;;;;15.50;99.90;;;;;;10216408;28;84272;-46
2022/07/01 04:18:15;;;;;;;;;;;15.60;99.90;;;;;;10191764;28;86141;-43
2022/07/01 04:23:15;;;;;;;;;;;15.60;99.90;;;;;;10184221;28;84057;-49
2022/07/01 04:28:16;;;;;;;;;;;15.70;99.90;;;;;;10184708;28;85141;-50
2022/07/01 04:33:16;;;;;;;;;;;15.50;99.90;;;;;;10185095;28;84182;-51
2022/07/01 04:38:17;;;;;;;;;;;15.30;99.90;;;;;;10183939;28;84994;-47
2022/07/01 04:43:17;;;;;;;;;;;15.30;99.90;;;;;;10184373;28;84853;-46
2022/07/01 04:48:18;;;;;;;;;;;15.40;99.90;;;;;;10183050;28;84516;-47
2022/07/01 04:53:18;;;;;;;;;;;15.40;99.90;;;;;;10181917;28;84940;-47
2022/07/01 04:58:19;;;;;;;;;;;15.50;99.90;;;;;;10184034;28;84970;-47
2022/07/01 05:03:19;;;;;;;;;;;15.30;99.90;;;;;;10183683;28;84638;-46
2022/07/01 05:08:20;;;;;;;;;;;15.40;99.90;;;;;;10191799;28;85140;-46
2022/07/01 05:13:21;;;;;;;;;;;15.40;99.90;;;;;;10191585;28;84822;-48
2022/07/01 05:23:41;;;;;;;;;;;15.50;99.90;;;;;;10211578;28;85359;-49
2022/07/01 05:28:42;;;;;;;;;;;15.50;99.90;;;;;;10197348;28;84860;-49
2022/07/01 05:33:42;;;;;;;;;;;15.60;99.90;;;;;;10213680;28;84978;-48
2022/07/01 05:38:43;;;;;;;;;;;15.60;99.90;;;;;;10224134;28;86016;-46
2022/07/01 05:43:44;;;;;;;;;;;15.60;99.90;;;;;;10187724;28;84349;-46
2022/07/01 05:48:44;;;;;;;;;;;15.60;99.90;;;;;;10203939;28;85096;-49
2022/07/01 05:53:47;;;;;;;;;;;15.70;99.90;;;;;;10226470;28;84876;-49
2022/07/01 05:58:47;;;;;;;;;;;15.80;99.90;;;;;;10204116;28;85023;-51
2022/07/01 06:03:48;;;;;;;;;;;15.90;99.90;;;;;;10204700;28;84142;-47
2022/07/01 06:08:49;;;;;;;;;;;15.90;99.90;;;;;;10207039;28;85970;-46
2022/07/01 06:13:49;;;;;;;;;;;16.00;99.90;;;;;;10228269;28;84463;-46
2022/07/01 06:18:50;;;;;;;;;;;16.00;99.90;;;;;;10248613;28;84076;-52
2022/07/01 06:23:50;;;;;;;;;;;16.20;99.90;;;;;;10248525;28;84958;-46
2022/07/01 06:28:51;;;;;;;;;;;16.30;99.90;;;;;;10220183;28;84089;-46
2022/07/01 06:33:52;;;;;;;;;;;16.30;99.90;;;;;;10208382;28;84145;-46
2022/07/01 06:38:52;;;;;;;;;;;16.20;99.90;;;;;;10208318;28;84758;-45
2022/07/01 06:43:53;;;;;;;;;;;16.40;99.90;;;;;;10207598;28;86030;-47
2022/07/01 06:48:55;;;;;;;;;;;16.50;1.00;;;;;;10209071;28;84173;-51
2022/07/01 06:53:56;;;;;;;;;;;16.60;1.00;;;;;;10206784;28;86033;-49
2022/07/01 06:58:56;;;;;;;;;;;16.50;1.00;;;;;;10207566;28;85491;-48
2022/07/01 07:03:57;;;;;;;;;;;16.60;1.00;;;;;;10231232;28;84974;-46
2022/07/01 07:08:57;;;;;;;;;;;16.50;1.00;;;;;;10223592;28;86179;-47
2022/07/01 07:13:58;;;;;;;;;;;16.40;1.00;;;;;;10225161;28;84803;-49
2022/07/01 07:18:58;;;;;;;;;;;16.50;1.00;;;;;;10227345;28;84598;-47
2022/07/01 07:23:59;;;;;;;;;;;16.50;1.00;;;;;;10227212;28;84280;-49
2022/07/01 07:28:59;;;;;;;;;;;16.50;1.00;;;;;;10222350;28;84162;-47
2022/07/01 07:34:00;;;;;;;;;;;16.40;1.00;;;;;;10238629;28;84166;-49
2022/07/01 07:39:00;;;;;;;;;;;16.40;1.00;;;;;;10245686;28;84731;-49
2022/07/01 07:44:01;;;;;;;;;;;16.50;1.00;;;;;;10208078;28;84135;-47
2022/07/01 07:49:02;;;;;;;;;;;16.70;1.00;;;;;;10206876;28;86592;-49
2022/07/01 07:54:02;;;;;;;;;;;17.00;1.00;;;;;;10205658;28;84225;-47
2022/07/01 07:59:04;;;;;;;;;;;16.90;1.00;;;;;;10237232;28;84460;-51
2022/07/01 08:04:04;;;;;;;;;;;17.10;1.00;;;;;;10221632;28;84899;-47
2022/07/01 08:09:06;;;;;;;;;;;17.20;1.00;;;;;;10234418;28;84081;-50
2022/07/01 08:14:06;;;;;;;;;;;17.40;1.00;;;;;;10237584;28;84913;-48
2022/07/01 08:19:07;;;;;;;;;;;17.50;1.00;;;;;;10246025;28;84915;-50
2022/07/01 08:24:07;;;;;;;;;;;17.60;1.00;;;;;;10210291;28;86416;-49
2022/07/01 08:29:08;;;;;;;;;;;17.80;1.00;;;;;;10184770;28;84525;-49
2022/07/01 08:34:09;;;;;;;;;;;18.00;99.90;;;;;;10183655;28;84238;-49
2022/07/01 08:39:09;;;;;;;;;;;18.30;99.90;;;;;;10186327;28;84629;-47
2022/07/01 08:44:10;;;;;;;;;;;18.60;99.90;;;;;;10183334;28;84351;-48
2022/07/01 08:49:11;;;;;;;;;;;18.80;1.00;;;;;;10188603;28;84165;-48
2022/07/01 08:54:12;;;;;;;;;;;19.10;1.00;;;;;;10182454;28;84878;-48
2022/07/01 08:59:20;;;;;;;;;;;19.20;29.50;;;;;;10183747;28;84099;-48
2022/07/01 09:04:21;;;;;;;;;;;19.40;1.00;;;;;;10184202;28;84963;-48
2022/07/01 09:09:22;;;;;;;;;;;19.80;1.00;;;;;;10175862;28;84199;-51
2022/07/01 09:14:30;;;;;;;;;;;20.00;99.90;;;;;;10164109;28;85018;-48
2022/07/01 09:19:37;;;;;;;;;;;19.90;1.00;;;;;;10238957;28;85183;-46
2022/07/01 09:24:39;;;;;;;;;;;19.80;1.00;;;;;;10235548;28;84914;-52
2022/07/01 09:29:41;;;;;;;;;;;19.70;99.90;;;;;;10212402;28;84977;-48
2022/07/01 09:34:46;;;;;;;;;;;19.80;99.90;;;;;;10186230;28;85882;-50
2022/07/01 09:39:49;;;;;;;;;;;19.70;12.80;;;;;;10203572;28;84824;-48
2022/07/01 09:44:56;;;;;;;;;;;19.60;99.90;;;;;;10204033;28;84961;-48
2022/07/01 09:49:57;;;;;;;;;;;19.50;1.00;;;;;;10203286;28;84989;-53
2022/07/01 09:54:57;;;;;;;;;;;19.60;42.30;;;;;;10210531;28;84902;-47
2022/07/01 09:59:58;;;;;;;;;;;19.60;1.00;;;;;;10210556;28;85104;-48
2022/07/01 10:05:01;;;;;;;;;;;19.60;1.00;;;;;;10209937;28;84164;-46
2022/07/01 10:10:21;;;;;;;;;;;19.60;1.00;;;;;;10209270;28;84091;-48
2022/07/01 10:15:21;;;;;;;;;;;19.30;1.00;;;;;;10210195;28;84127;-47
2022/07/01 10:20:26;;;;;;;;;;;19.70;99.90;;;;;;10210391;28;84622;-47
2022/07/01 10:25:46;;;;;;;;;;;20.20;1.00;;;;;;10209730;28;84406;-49
2022/07/01 10:30:55;;;;;;;;;;;20.40;99.90;;;;;;10208562;28;85929;-47
2022/07/01 10:36:02;;;;;;;;;;;20.50;99.90;;;;;;10210629;28;84051;-51
2022/07/01 10:41:09;;;;;;;;;;;20.90;1.00;;;;;;10209807;28;85710;-50
2022/07/01 10:46:10;;;;;;;;;;;21.10;1.00;;;;;;10207563;28;86689;-50
2022/07/01 10:51:15;;;;;;;;;;;21.50;99.90;;;;;;10209664;28;84144;-48
2022/07/01 10:56:17;;;;;;;;;;;22.20;14.30;;;;;;10209580;28;84754;-48
2022/07/01 11:01:17;;;;;;;;;;;24.00;99.90;;;;;;10208927;28;84089;-49
2022/07/01 11:06:19;;;;;;;;;;;24.50;1.00;;;;;;10205680;28;85096;-47
2022/07/01 11:11:19;;;;;;;;;;;25.50;1.00;;;;;;10190745;28;85980;-47
2022/07/01 11:16:20;;;;;;;;;;;25.70;99.90;;;;;;10207343;28;84834;-48
2022/07/01 11:21:23;;;;;;;;;;;25.40;99.90;;;;;;10207332;28;84121;-48
2022/07/01 11:26:24;;;;;;;;;;;25.10;99.90;;;;;;10207699;28;84263;-51
2022/07/01 11:31:29;;;;;;;;;;;25.40;99.90;;;;;;10207796;28;84634;-49
2022/07/01 11:41:52;;;;;;;;;;;25.20;99.90;;;;;;10206482;28;85118;-49
2022/07/01 11:46:53;;;;;;;;;;;24.80;99.90;;;;;;10207924;28;86614;-54
2022/07/01 11:51:54;;;;;;;;;;;24.60;99.90;;;;;;10208612;28;84090;-51
2022/07/01 11:57:06;;;;;;;;;;;24.00;99.90;;;;;;10208843;28;84030;-53
2022/07/01 12:02:08;;;;;;;;;;;24.30;99.90;;;;;;10209218;28;84313;-47
2022/07/01 12:07:10;;;;;;;;;;;24.70;99.90;;;;;;10205954;28;86024;-50
2022/07/01 12:12:18;;;;;;;;;;;24.40;99.90;;;;;;10207266;28;84820;-48
2022/07/01 12:17:19;;;;;;;;;;;25.50;52.90;;;;;;10207012;28;84199;-50
2022/07/01 12:22:23;;;;;;;;;;;27.00;1.00;;;;;;10189397;28;87324;-50
2022/07/01 12:27:24;;;;;;;;;;;27.70;1.00;;;;;;10207904;28;84194;-52
2022/07/01 12:32:25;;;;;;;;;;;27.90;1.00;;;;;;10194429;28;85314;-48
2022/07/01 12:37:26;;;;;;;;;;;27.50;1.00;;;;;;10185553;28;84634;-53
2022/07/01 12:42:34;;;;;;;;;;;26.20;1.00;;;;;;10199541;28;84913;-52
2022/07/01 12:47:35;;;;;;;;;;;25.80;1.00;;;;;;10206853;28;84909;-54
2022/07/01 12:52:36;;;;;;;;;;;26.40;1.00;;;;;;10188538;28;85856;-57
2022/07/01 12:57:37;;;;;;;;;;;26.90;1.00;;;;;;10200297;28;84711;-50
2022/07/01 13:02:38;;;;;;;;;;;27.50;1.00;;;;;;10186480;28;84075;-50
2022/07/01 13:07:38;;;;;;;;;;;28.60;1.00;;;;;;10184576;28;84281;-48
2022/07/01 13:12:39;;;;;;;;;;;28.80;1.00;;;;;;10183894;28;84265;-54
2022/07/01 13:17:39;;;;;;;;;;;28.50;1.00;;;;;;10177638;28;85002;-48
2022/07/01 13:22:40;;;;;;;;;;;28.30;1.00;;;;;;10181595;28;84596;-47
2022/07/01 13:27:43;;;;;;;;;;;26.80;1.00;;;;;;10207434;28;84049;-45
2022/07/01 13:32:43;;;;;;;;;;;26.40;1.00;;;;;;10211320;28;84163;-48
2022/07/01 13:37:44;;;;;;;;;;;27.40;1.00;;;;;;10205087;28;85384;-52
2022/07/01 13:42:44;;;;;;;;;;;28.50;1.00;;;;;;10203628;28;84233;-52
2022/07/01 13:47:45;;;;;;;;;;;27.90;1.00;;;;;;10220561;28;84922;-51
2022/07/01 13:52:46;;;;;;;;;;;27.50;1.00;;;;;;10221951;28;84043;-49
2022/07/01 13:57:47;;;;;;;;;;;27.00;1.00;;;;;;10212745;28;84976;-54
2022/07/01 14:02:47;;;;;;;;;;;25.80;1.00;;;;;;10208974;28;85110;-53
2022/07/01 14:07:49;;;;;;;;;;;25.50;1.00;;;;;;10213802;28;84947;-51
2022/07/01 14:12:50;;;;;;;;;;;25.10;1.00;;;;;;10215935;28;87040;-54
2022/07/01 14:17:50;;;;;;;;;;;24.50;1.00;;;;;;10206572;28;85330;-52
2022/07/01 14:22:53;;;;;;;;;;;24.40;1.00;;;;;;10238075;22;84899;-50
2022/07/01 14:27:53;;;;;;;;;;;24.10;1.00;;;;;;10267192;28;86772;-46
2022/07/01 14:32:54;;;;;;;;;;;24.40;1.00;;;;;;10260790;28;84967;-46
2022/07/01 14:37:55;;;;;;;;;;;24.30;1.00;;;;;;10260660;28;84069;-46
2022/07/01 14:42:55;;;;;;;;;;;24.30;1.00;;;;;;10262027;28;85082;-47
2022/07/01 14:47:56;;;;;;;;;;;24.00;1.00;;;;;;10264575;28;84860;-46
2022/07/01 14:52:57;;;;;;;;;;;23.70;1.00;;;;;;10271899;28;84885;-46
2022/07/01 14:57:57;;;;;;;;;;;24.00;1.00;;;;;;10272101;28;84292;-49
2022/07/01 15:02:58;;;;;;;;;;;24.00;1.00;;;;;;10244732;28;84961;-49
2022/07/01 15:07:58;;;;;;;;;;;23.80;1.00;;;;;;10239630;28;84400;-47
2022/07/01 15:12:59;;;;;;;;;;;23.90;1.00;;;;;;10243686;28;84204;-48
2022/07/01 15:17:59;;;;;;;;;;;24.00;1.00;;;;;;10242719;28;84116;-48
2022/07/01 15:23:00;;;;;;;;;;;23.90;1.00;;;;;;10237625;28;84978;-50
2022/07/01 15:28:00;;;;;;;;;;;23.80;1.00;;;;;;10244817;28;85107;-50
2022/07/01 15:33:01;;;;;;;;;;;23.60;1.00;;;;;;10240389;28;86944;-53
2022/07/01 15:38:01;;;;;;;;;;;23.50;1.00;;;;;;10247336;28;84283;-49
2022/07/01 15:43:02;;;;;;;;;;;23.40;1.00;;;;;;10247080;28;84473;-48
2022/07/01 15:48:06;;;;;;;;;;;23.20;1.00;;;;;;10232540;28;84200;-51
2022/07/01 15:53:07;;;;;;;;;;;23.10;1.00;;;;;;10248288;28;85284;-48
2022/07/01 15:58:11;;;;;;;;;;;23.00;1.00;;;;;;10248277;28;84885;-49
2022/07/01 16:03:12;;;;;;;;;;;23.10;1.00;;;;;;10247899;28;84922;-50
2022/07/01 16:08:17;;;;;;;;;;;23.00;1.00;;;;;;10246370;28;84101;-48
2022/07/01 16:13:18;;;;;;;;;;;23.10;1.00;;;;;;10247517;28;84098;-48
2022/07/01 16:18:21;;;;;;;;;;;23.00;1.00;;;;;;10263043;28;86066;-50
2022/07/01 16:23:26;;;;;;;;;;;22.90;1.00;;;;;;10247432;28;84005;-48
2022/07/01 16:28:28;;;;;;;;;;;22.80;1.00;;;;;;10248225;28;84109;-53
2022/07/01 16:33:28;;;;;;;;;;;22.60;1.00;;;;;;10248385;28;85025;-48
2022/07/01 16:38:31;;;;;;;;;;;22.80;1.00;;;;;;10246577;28;84908;-47
2022/07/01 16:43:35;;;;;;;;;;;22.80;1.00;;;;;;10247624;28;85083;-51
2022/07/01 16:48:36;;;;;;;;;;;22.70;1.00;;;;;;10247046;28;84659;-48
2022/07/01 16:53:38;;;;;;;;;;;22.50;1.00;;;;;;10247035;28;84064;-48
2022/07/01 16:58:41;;;;;;;;;;;22.60;1.00;;;;;;10246689;28;84110;-50
2022/07/01 17:03:41;;;;;;;;;;;22.60;1.00;;;;;;10250751;28;84941;-52
2022/07/01 17:08:43;;;;;;;;;;;22.60;1.00;;;;;;10253417;28;85545;-49
2022/07/01 17:13:45;;;;;;;;;;;22.70;1.00;;;;;;10254740;28;84889;-52
2022/07/01 17:18:46;;;;;;;;;;;22.60;1.00;;;;;;10253858;28;84155;-50
2022/07/01 17:23:51;;;;;;;;;;;22.50;1.00;;;;;;10252927;28;84116;-48
2022/07/01 17:28:56;;;;;;;;;;;22.20;1.00;;;;;;10253714;28;85322;-47
2022/07/01 17:33:57;;;;;;;;;;;22.10;1.00;;;;;;10252666;28;85105;-50
2022/07/01 17:39:09;;;;;;;;;;;22.00;1.00;;;;;;10252126;28;84925;-49
2022/07/01 17:44:11;;;;;;;;;;;21.90;1.00;;;;;;10253220;28;84878;-50
2022/07/01 17:49:12;;;;;;;;;;;21.70;1.00;;;;;;10252148;28;85078;-54
2022/07/01 17:54:13;;;;;;;;;;;21.50;21.70;;;;;;10252043;28;84678;-52
2022/07/01 17:59:15;;;;;;;;;;;21.40;88.60;;;;;;10267005;28;85060;-51
2022/07/01 18:04:17;;;;;;;;;;;21.30;99.90;;;;;;10250666;28;84239;-53
2022/07/01 18:09:18;;;;;;;;;;;21.30;99.90;;;;;;10252153;28;84301;-50
2022/07/01 18:14:21;;;;;;;;;;;21.20;99.90;;;;;;10250921;28;84112;-51
2022/07/01 18:19:39;;;;;;;;;;;21.20;99.90;;;;;;10252901;28;83989;-50
2022/07/01 18:24:45;;;;;;;;;;;21.20;99.90;;;;;;10250688;28;84166;-52
2022/07/01 18:29:47;;;;;;;;;;;21.30;99.90;;;;;;10251354;28;84164;-52
2022/07/01 18:35:01;;;;;;;;;;;21.30;99.90;;;;;;10251016;28;84205;-54
2022/07/01 18:40:01;;;;;;;;;;;21.20;99.90;;;;;;10248908;28;84854;-50
2022/07/01 18:45:03;;;;;;;;;;;21.10;1.00;;;;;;10248569;28;85979;-54
2022/07/01 18:50:05;;;;;;;;;;;21.10;99.90;;;;;;10250938;28;86017;-52
2022/07/01 18:55:09;;;;;;;;;;;20.80;1.00;;;;;;10250936;28;84961;-49
2022/07/01 19:00:14;;;;;;;;;;;20.60;1.00;;;;;;10248157;28;85882;-52
2022/07/01 19:05:14;;;;;;;;;;;20.50;1.00;;;;;;10250114;28;84019;-50
2022/07/01 19:10:15;;;;;;;;;;;20.40;1.00;;;;;;10249467;28;83992;-50
2022/07/01 19:15:16;;;;;;;;;;;20.30;1.00;;;;;;10249787;28;84937;-54
2022/07/01 19:20:16;;;;;;;;;;;20.20;1.00;;;;;;10249739;28;85834;-50
2022/07/01 19:25:17;;;;;;;;;;;20.10;99.90;;;;;;10248088;28;84868;-54
2022/07/01 19:30:17;;;;;;;;;;;20.20;99.90;;;;;;10248933;28;85006;-50
2022/07/01 19:35:22;;;;;;;;;;;20.10;99.90;;;;;;10248267;28;84323;-51
2022/07/01 19:40:23;;;;;;;;;;;20.10;99.90;;;;;;10249132;28;83989;-50
2022/07/01 19:45:24;;;;;;;;;;;20.10;1.00;;;;;;10248329;28;84214;-50
2022/07/01 19:50:24;;;;;;;;;;;20.10;1.00;;;;;;10253971;28;85037;-55
2022/07/01 19:55:25;;;;;;;;;;;20.00;1.00;;;;;;10252745;28;85339;-49
2022/07/01 20:00:27;;;;;;;;;;;20.00;1.00;;;;;;10252518;28;86153;-50
2022/07/01 20:05:28;;;;;;;;;;;20.00;1.00;;;;;;10254242;28;84905;-54
2022/07/01 20:10:30;;;;;;;;;;;19.90;99.90;;;;;;10252239;28;84959;-50
2022/07/01 20:15:33;;;;;;;;;;;19.80;1.00;;;;;;10249868;28;84075;-55
2022/07/01 20:20:33;;;;;;;;;;;19.80;1.00;;;;;;10247880;28;84211;-53
2022/07/01 20:25:34;;;;;;;;;;;19.70;99.90;;;;;;10243546;22;87113;-47
2022/07/01 20:30:34;;;;;;;;;;;19.60;99.90;;;;;;10246993;28;84042;-49
2022/07/01 20:35:35;;;;;;;;;;;19.50;1.00;;;;;;10212780;28;86997;-48
2022/07/01 20:40:36;;;;;;;;;;;19.50;99.90;;;;;;10243250;28;84438;-48
2022/07/01 20:45:36;;;;;;;;;;;19.40;1.00;;;;;;10236517;28;84506;-54
2022/07/01 20:50:37;;;;;;;;;;;19.30;1.00;;;;;;10225297;28;84209;-50
2022/07/01 20:55:37;;;;;;;;;;;19.30;1.00;;;;;;10229494;28;84694;-48
2022/07/01 21:00:38;;;;;;;;;;;19.30;99.90;;;;;;10258610;28;87067;-50
2022/07/01 21:05:38;;;;;;;;;;;19.10;99.90;;;;;;10242364;28;84237;-48
2022/07/01 21:10:39;;;;;;;;;;;19.10;1.00;;;;;;10242256;28;87043;-50
2022/07/01 21:15:40;;;;;;;;;;;19.00;1.00;;;;;;10245797;28;84763;-50
2022/07/01 21:20:41;;;;;;;;;;;18.90;99.90;;;;;;10244064;28;86013;-49
2022/07/01 21:25:43;;;;;;;;;;;18.80;1.00;;;;;;10242481;28;85968;-54
2022/07/01 21:30:43;;;;;;;;;;;18.70;1.00;;;;;;10244316;28;84848;-53
2022/07/01 21:35:44;;;;;;;;;;;18.60;1.00;;;;;;10242848;28;84881;-54
2022/07/01 21:40:46;;;;;;;;;;;18.60;1.00;;;;;;10244446;28;84626;-54
2022/07/01 21:45:47;;;;;;;;;;;18.50;1.00;;;;;;10243105;28;86133;-48
2022/07/01 21:50:47;;;;;;;;;;;18.30;99.90;;;;;;10253756;28;84279;-49
2022/07/01 21:55:49;;;;;;;;;;;18.30;1.00;;;;;;10251447;28;84089;-49
2022/07/01 22:00:50;;;;;;;;;;;18.10;1.00;;;;;;10251439;28;84186;-50
2022/07/01 22:11:11;;;;;;;;;;;17.90;1.00;;;;;;10237554;28;84642;-48
2022/07/01 22:16:12;;;;;;;;;;;17.90;1.00;;;;;;10251593;28;84353;-47
2022/07/01 22:21:13;;;;;;;;;;;17.90;1.00;;;;;;10250378;28;84935;-48
2022/07/01 22:26:14;;;;;;;;;;;17.80;1.00;;;;;;10250405;28;84230;-48
2022/07/01 22:31:16;;;;;;;;;;;17.70;1.00;;;;;;10251002;28;84110;-52
2022/07/01 22:36:17;;;;;;;;;;;17.70;1.00;;;;;;10251084;28;84453;-48
2022/07/01 22:41:18;;;;;;;;;;;17.60;99.90;;;;;;10250491;28;84863;-52
2022/07/01 22:46:25;;;;;;;;;;;17.50;99.90;;;;;;10249870;28;84249;-50
2022/07/01 22:51:34;;;;;;;;;;;17.50;99.90;;;;;;10250034;28;84043;-50
2022/07/01 22:56:35;;;;;;;;;;;17.40;1.00;;;;;;10249563;28;84011;-49
2022/07/01 23:01:39;;;;;;;;;;;17.30;1.00;;;;;;10248072;28;86143;-51
2022/07/01 23:07:06;;;;;;;;;;;17.20;1.00;;;;;;10249324;28;84127;-50
2022/07/01 23:12:09;;;;;;;;;;;17.10;1.00;;;;;;10249655;28;83980;-47
2022/07/01 23:17:10;;;;;;;;;;;17.10;1.00;;;;;;10248841;28;84221;-49
2022/07/01 23:22:11;;;;;;;;;;;17.00;1.00;;;;;;10248556;28;84103;-53
2022/07/01 23:27:12;;;;;;;;;;;17.00;1.00;;;;;;10242773;28;84330;-52
2022/07/01 23:32:12;;;;;;;;;;;16.90;1.00;;;;;;10240798;28;84299;-53
2022/07/01 23:37:14;;;;;;;;;;;16.80;99.90;;;;;;10240725;28;84946;-51
2022/07/01 23:42:15;;;;;;;;;;;16.70;99.90;;;;;;10236141;28;85203;-48
2022/07/01 23:47:15;;;;;;;;;;;16.70;99.90;;;;;;10243998;28;85078;-49
2022/07/01 23:52:16;;;;;;;;;;;16.50;1.00;;;;;;10235487;28;84921;-48
2022/07/01 23:57:16;;;;;;;;;;;16.30;1.00;;;;;;10245527;28;84051;-49
